Poquonock, Connecticut
Current Conditions -  °F | °C
As of 10:51 PM on Sunday 25 Jan 2015 (Local Time) from KBDL Reporting Station
Scattered Clouds Scattered Clouds  
Wind Chill: 10°   Ceiling: Unl
Heat Index: 18°   Visibility: 10mi
Dew Point:   Wind: 6mph
Humidity: 52%   Direction: 290°WNW
Pressure: 30.03"   Gusts: NA
Location:  41.9°N, 72.68°W
Report Text: KBDL 260351Z 29005KT 10SM SCT230 M08/M16 A3003 RMK AO2 SLP170 T10781161 $
Loading
Personal Weather Stations






























Interactive Weather Map New forecast layout! Learn more

10-Day Weather Forecast

Advertisements
Track Severe Weather on mobile